sensor_id;sensor_type;location;lat;lon;timestamp;pressure;altitude;pressure_sealevel;temperature;humidity
11888;BME280;6003;42.756;23.130;2023-09-07T00:01:17;157195.94;;;18.53;86.17
11888;BME280;6003;42.756;23.130;2023-09-07T00:03:45;157195.94;;;18.53;85.97
11888;BME280;6003;42.756;23.130;2023-09-07T00:06:12;157178.69;;;18.46;86.30
11888;BME280;6003;42.756;23.130;2023-09-07T00:08:39;157164.03;;;18.40;86.49
11888;BME280;6003;42.756;23.130;2023-09-07T00:11:06;157156.06;;;18.37;86.59
11888;BME280;6003;42.756;23.130;2023-09-07T00:13:33;157153.44;;;18.36;86.62
11888;BME280;6003;42.756;23.130;2023-09-07T00:16:01;157137.50;;;18.30;86.81
11888;BME280;6003;42.756;23.130;2023-09-07T00:18:28;157142.75;;;18.32;86.41
11888;BME280;6003;42.756;23.130;2023-09-07T00:21:06;157141.44;;;18.32;87.27
11888;BME280;6003;42.756;23.130;2023-09-07T00:23:34;157158.72;;;18.38;86.18
11888;BME280;6003;42.756;23.130;2023-09-07T00:26:00;157150.75;;;18.35;86.50
11888;BME280;6003;42.756;23.130;2023-09-07T00:28:27;157145.47;;;18.33;86.75
11888;BME280;6003;42.756;23.130;2023-09-07T00:30:54;157156.06;;;18.37;87.01
11888;BME280;6003;42.756;23.130;2023-09-07T00:33:21;157150.75;;;18.35;87.64
11888;BME280;6003;42.756;23.130;2023-09-07T00:35:48;157148.09;;;18.34;87.93
11888;BME280;6003;42.756;23.130;2023-09-07T00:38:16;157140.13;;;18.31;88.13
11888;BME280;6003;42.756;23.130;2023-09-07T00:40:43;157144.13;;;18.33;89.03
11888;BME280;6003;42.756;23.130;2023-09-07T00:43:10;157142.75;;;18.32;88.98
11888;BME280;6003;42.756;23.130;2023-09-07T00:45:38;157150.75;;;18.35;88.91
11888;BME280;6003;42.756;23.130;2023-09-07T00:48:05;157145.47;;;18.33;89.37
11888;BME280;6003;42.756;23.130;2023-09-07T00:50:32;157134.78;;;18.29;90.15
11888;BME280;6003;42.756;23.130;2023-09-07T00:53:00;157124.19;;;18.25;90.93
11888;BME280;6003;42.756;23.130;2023-09-07T00:55:29;157122.84;;;18.24;91.51
11888;BME280;6003;42.756;23.130;2023-09-07T00:58:00;157110.88;;;18.20;91.81
11888;BME280;6003;42.756;23.130;2023-09-07T01:00:27;157116.22;;;18.22;92.67
11888;BME280;6003;42.756;23.130;2023-09-07T01:02:54;157102.91;;;18.17;93.16
11888;BME280;6003;42.756;23.130;2023-09-07T01:05:26;157098.88;;;18.15;93.99
11888;BME280;6003;42.756;23.130;2023-09-07T01:07:59;157096.25;;;18.14;95.03
11888;BME280;6003;42.756;23.130;2023-09-07T01:10:30;157092.28;;;18.13;96.04
11888;BME280;6003;42.756;23.130;2023-09-07T01:12:57;157081.63;;;18.09;96.41
11888;BME280;6003;42.756;23.130;2023-09-07T01:15:24;157074.97;;;18.06;97.11
11888;BME280;6003;42.756;23.130;2023-09-07T01:17:51;157073.66;;;18.06;97.53
11888;BME280;6003;42.756;23.130;2023-09-07T01:20:19;157071.00;;;18.04;98.09
11888;BME280;6003;42.756;23.130;2023-09-07T01:22:48;157072.34;;;18.05;98.49
11888;BME280;6003;42.756;23.130;2023-09-07T01:25:15;157076.28;;;18.07;98.99
11888;BME280;6003;42.756;23.130;2023-09-07T01:27:42;157081.63;;;18.09;98.93
11888;BME280;6003;42.756;23.130;2023-09-07T01:30:09;157067.00;;;18.03;99.59
11888;BME280;6003;42.756;23.130;2023-09-07T01:32:36;157065.69;;;18.02;100.00
11888;BME280;6003;42.756;23.130;2023-09-07T01:35:06;157051.06;;;17.97;100.00
11888;BME280;6003;42.756;23.130;2023-09-07T01:37:36;157041.75;;;17.93;100.00
11888;BME280;6003;42.756;23.130;2023-09-07T01:40:05;157052.38;;;17.97;100.00
11888;BME280;6003;42.756;23.130;2023-09-07T01:42:32;157049.75;;;17.96;100.00
11888;BME280;6003;42.756;23.130;2023-09-07T01:44:59;157045.72;;;17.95;100.00
11888;BME280;6003;42.756;23.130;2023-09-07T01:47:26;157044.41;;;17.94;100.00
11888;BME280;6003;42.756;23.130;2023-09-07T01:49:53;157040.44;;;17.93;100.00
11888;BME280;6003;42.756;23.130;2023-09-07T01:52:20;157023.13;;;17.86;100.00
11888;BME280;6003;42.756;23.130;2023-09-07T01:54:47;157011.19;;;17.81;100.00
11888;BME280;6003;42.756;23.130;2023-09-07T01:57:15;157012.53;;;17.82;100.00
11888;BME280;6003;42.756;23.130;2023-09-07T01:59:42;157020.50;;;17.85;100.00
11888;BME280;6003;42.756;23.130;2023-09-07T02:02:08;157005.88;;;17.79;100.00
11888;BME280;6003;42.756;23.130;2023-09-07T02:04:35;157007.19;;;17.80;100.00
11888;BME280;6003;42.756;23.130;2023-09-07T02:07:02;157039.06;;;17.92;100.00
11888;BME280;6003;42.756;23.130;2023-09-07T02:09:30;157044.41;;;17.94;100.00
11888;BME280;6003;42.756;23.130;2023-09-07T02:11:57;157027.16;;;17.88;100.00
11888;BME280;6003;42.756;23.130;2023-09-07T02:14:25;157025.81;;;17.87;100.00
11888;BME280;6003;42.756;23.130;2023-09-07T02:16:52;157016.47;;;17.84;100.00
11888;BME280;6003;42.756;23.130;2023-09-07T02:19:18;157003.22;;;17.78;100.00
11888;BME280;6003;42.756;23.130;2023-09-07T02:21:48;157004.53;;;17.79;100.00
11888;BME280;6003;42.756;23.130;2023-09-07T02:24:15;157020.50;;;17.85;100.00
11888;BME280;6003;42.756;23.130;2023-09-07T02:26:42;157005.88;;;17.79;100.00
11888;BME280;6003;42.756;23.130;2023-09-07T02:29:11;157019.16;;;17.85;100.00
11888;BME280;6003;42.756;23.130;2023-09-07T02:31:39;157025.81;;;17.87;100.00
11888;BME280;6003;42.756;23.130;2023-09-07T02:34:06;157025.81;;;17.87;100.00
11888;BME280;6003;42.756;23.130;2023-09-07T02:36:33;157025.81;;;17.87;100.00
11888;BME280;6003;42.756;23.130;2023-09-07T02:39:00;157028.47;;;17.88;100.00
11888;BME280;6003;42.756;23.130;2023-09-07T02:41:27;157044.41;;;17.94;100.00
11888;BME280;6003;42.756;23.130;2023-09-07T02:43:54;157035.13;;;17.91;100.00
11888;BME280;6003;42.756;23.130;2023-09-07T02:46:21;157032.47;;;17.90;100.00
11888;BME280;6003;42.756;23.130;2023-09-07T02:48:49;157035.13;;;17.91;100.00
11888;BME280;6003;42.756;23.130;2023-09-07T02:51:15;157048.41;;;17.96;100.00
11888;BME280;6003;42.756;23.130;2023-09-07T02:53:42;157045.72;;;17.95;100.00
11888;BME280;6003;42.756;23.130;2023-09-07T02:56:09;157041.75;;;17.93;100.00
11888;BME280;6003;42.756;23.130;2023-09-07T02:58:36;157023.13;;;17.86;100.00
11888;BME280;6003;42.756;23.130;2023-09-07T03:01:05;157047.09;;;17.95;100.00
11888;BME280;6003;42.756;23.130;2023-09-07T03:03:34;157040.44;;;17.93;100.00
11888;BME280;6003;42.756;23.130;2023-09-07T03:06:09;157025.81;;;17.87;100.00
11888;BME280;6003;42.756;23.130;2023-09-07T03:08:36;157017.84;;;17.84;100.00
11888;BME280;6003;42.756;23.130;2023-09-07T03:11:03;157000.50;;;17.77;100.00
11888;BME280;6003;42.756;23.130;2023-09-07T03:13:30;156996.53;;;17.76;100.00
11888;BME280;6003;42.756;23.130;2023-09-07T03:15:57;156993.84;;;17.75;100.00
11888;BME280;6003;42.756;23.130;2023-09-07T03:18:24;156988.56;;;17.73;100.00
11888;BME280;6003;42.756;23.130;2023-09-07T03:20:53;156989.88;;;17.73;100.00
11888;BME280;6003;42.756;23.130;2023-09-07T03:23:22;156992.53;;;17.74;100.00
11888;BME280;6003;42.756;23.130;2023-09-07T03:25:49;156992.53;;;17.74;100.00
11888;BME280;6003;42.756;23.130;2023-09-07T03:28:16;157007.19;;;17.80;100.00
11888;BME280;6003;42.756;23.130;2023-09-07T03:30:43;157003.22;;;17.78;100.00
11888;BME280;6003;42.756;23.130;2023-09-07T03:33:09;156997.84;;;17.76;100.00
11888;BME280;6003;42.756;23.130;2023-09-07T03:35:36;157001.84;;;17.78;100.00
11888;BME280;6003;42.756;23.130;2023-09-07T03:38:04;157007.19;;;17.80;100.00
11888;BME280;6003;42.756;23.130;2023-09-07T03:40:32;157008.50;;;17.80;100.00
11888;BME280;6003;42.756;23.130;2023-09-07T03:42:59;157008.50;;;17.80;100.00
11888;BME280;6003;42.756;23.130;2023-09-07T03:45:25;156996.53;;;17.76;100.00
11888;BME280;6003;42.756;23.130;2023-09-07T03:47:52;156992.53;;;17.74;100.00
11888;BME280;6003;42.756;23.130;2023-09-07T03:50:19;156999.16;;;17.77;100.00
11888;BME280;6003;42.756;23.130;2023-09-07T03:52:46;156991.19;;;17.74;100.00
11888;BME280;6003;42.756;23.130;2023-09-07T03:55:13;156976.56;;;17.68;100.00
11888;BME280;6003;42.756;23.130;2023-09-07T03:57:42;156969.94;;;17.66;100.00
11888;BME280;6003;42.756;23.130;2023-09-07T04:00:10;156956.63;;;17.60;100.00
11888;BME280;6003;42.756;23.130;2023-09-07T04:02:37;156954.00;;;17.59;100.00
11888;BME280;6003;42.756;23.130;2023-09-07T04:05:04;156935.41;;;17.52;100.00
11888;BME280;6003;42.756;23.130;2023-09-07T04:07:31;156931.41;;;17.51;100.00
11888;BME280;6003;42.756;23.130;2023-09-07T04:09:58;156924.75;;;17.48;100.00
11888;BME280;6003;42.756;23.130;2023-09-07T04:12:25;156919.41;;;17.46;100.00
11888;BME280;6003;42.756;23.130;2023-09-07T04:14:53;156916.78;;;17.45;100.00
11888;BME280;6003;42.756;23.130;2023-09-07T04:17:20;156902.16;;;17.40;100.00
11888;BME280;6003;42.756;23.130;2023-09-07T04:19:47;156910.13;;;17.43;100.00
11888;BME280;6003;42.756;23.130;2023-09-07T04:22:14;156892.88;;;17.36;100.00
11888;BME280;6003;42.756;23.130;2023-09-07T04:24:41;156895.53;;;17.37;100.00
11888;BME280;6003;42.756;23.130;2023-09-07T04:27:08;156892.88;;;17.36;100.00
11888;BME280;6003;42.756;23.130;2023-09-07T04:29:34;156878.25;;;17.30;100.00
11888;BME280;6003;42.756;23.130;2023-09-07T04:32:03;156874.25;;;17.29;100.00
11888;BME280;6003;42.756;23.130;2023-09-07T04:34:30;156868.97;;;17.27;100.00
11888;BME280;6003;42.756;23.130;2023-09-07T04:36:57;156834.41;;;17.13;100.00
11888;BME280;6003;42.756;23.130;2023-09-07T04:39:24;156815.84;;;17.06;100.00
11888;BME280;6003;42.756;23.130;2023-09-07T04:41:50;156806.50;;;17.03;100.00
11888;BME280;6003;42.756;23.130;2023-09-07T04:44:17;156805.19;;;17.02;100.00
11888;BME280;6003;42.756;23.130;2023-09-07T04:46:44;156775.97;;;16.91;100.00
11888;BME280;6003;42.756;23.130;2023-09-07T04:49:12;156774.66;;;16.90;100.00
11888;BME280;6003;42.756;23.130;2023-09-07T04:51:39;156761.34;;;16.85;100.00
11888;BME280;6003;42.756;23.130;2023-09-07T04:54:06;156765.34;;;16.87;100.00
11888;BME280;6003;42.756;23.130;2023-09-07T04:56:33;156775.97;;;16.91;100.00
11888;BME280;6003;42.756;23.130;2023-09-07T04:59:00;156781.28;;;16.93;100.00
11888;BME280;6003;42.756;23.130;2023-09-07T05:01:27;156787.94;;;16.96;100.00
11888;BME280;6003;42.756;23.130;2023-09-07T05:03:53;156786.63;;;16.95;100.00
11888;BME280;6003;42.756;23.130;2023-09-07T05:06:22;156791.91;;;16.97;100.00
11888;BME280;6003;42.756;23.130;2023-09-07T05:08:49;156811.84;;;17.05;100.00
11888;BME280;6003;42.756;23.130;2023-09-07T05:11:16;156799.88;;;17.00;100.00
11888;BME280;6003;42.756;23.130;2023-09-07T05:13:42;156807.88;;;17.03;100.00
11888;BME280;6003;42.756;23.130;2023-09-07T05:16:09;156810.53;;;17.04;100.00
11888;BME280;6003;42.756;23.130;2023-09-07T05:18:36;156813.16;;;17.05;100.00
11888;BME280;6003;42.756;23.130;2023-09-07T05:21:11;156791.91;;;16.97;100.00
11888;BME280;6003;42.756;23.130;2023-09-07T05:23:39;156783.94;;;16.94;100.00
11888;BME280;6003;42.756;23.130;2023-09-07T05:26:06;156807.88;;;17.03;100.00
11888;BME280;6003;42.756;23.130;2023-09-07T05:28:33;156807.88;;;17.03;100.00
11888;BME280;6003;42.756;23.130;2023-09-07T05:31:00;156814.47;;;17.06;100.00
11888;BME280;6003;42.756;23.130;2023-09-07T05:33:27;156839.75;;;17.16;100.00
11888;BME280;6003;42.756;23.130;2023-09-07T05:35:54;156842.38;;;17.17;100.00
11888;BME280;6003;42.756;23.130;2023-09-07T05:38:20;156834.41;;;17.13;100.00
11888;BME280;6003;42.756;23.130;2023-09-07T05:40:49;156834.41;;;17.13;100.00
11888;BME280;6003;42.756;23.130;2023-09-07T05:43:19;156818.47;;;17.07;100.00
11888;BME280;6003;42.756;23.130;2023-09-07T05:45:46;156827.78;;;17.11;100.00
11888;BME280;6003;42.756;23.130;2023-09-07T05:48:13;156834.41;;;17.13;100.00
11888;BME280;6003;42.756;23.130;2023-09-07T05:50:41;156834.41;;;17.13;100.00
11888;BME280;6003;42.756;23.130;2023-09-07T05:53:08;156846.38;;;17.18;100.00
11888;BME280;6003;42.756;23.130;2023-09-07T05:55:35;156874.25;;;17.29;100.00
11888;BME280;6003;42.756;23.130;2023-09-07T05:58:05;156908.81;;;17.42;100.00
11888;BME280;6003;42.756;23.130;2023-09-07T06:00:32;156950.03;;;17.58;100.00
11888;BME280;6003;42.756;23.130;2023-09-07T06:03:00;156980.59;;;17.70;100.00
11888;BME280;6003;42.756;23.130;2023-09-07T06:05:28;157009.88;;;17.81;100.00
11888;BME280;6003;42.756;23.130;2023-09-07T06:07:55;157048.41;;;17.96;100.00
11888;BME280;6003;42.756;23.130;2023-09-07T06:10:22;157082.94;;;18.09;100.00
11888;BME280;6003;42.756;23.130;2023-09-07T06:12:49;157141.44;;;18.32;100.00
11888;BME280;6003;42.756;23.130;2023-09-07T06:15:17;157187.97;;;18.49;100.00
11888;BME280;6003;42.756;23.130;2023-09-07T06:17:44;157247.81;;;18.72;100.00
11888;BME280;6003;42.756;23.130;2023-09-07T06:20:12;157294.44;;;18.90;100.00
11888;BME280;6003;42.756;23.130;2023-09-07T06:22:38;157336.97;;;19.07;100.00
11888;BME280;6003;42.756;23.130;2023-09-07T06:25:06;157384.91;;;19.25;98.88
11888;BME280;6003;42.756;23.130;2023-09-07T06:27:32;157414.16;;;19.36;97.75
11888;BME280;6003;42.756;23.130;2023-09-07T06:29:59;157483.34;;;19.63;97.11
11888;BME280;6003;42.756;23.130;2023-09-07T06:32:27;157520.66;;;19.77;97.70
11888;BME280;6003;42.756;23.130;2023-09-07T06:34:54;157575.22;;;19.98;95.07
11888;BME280;6003;42.756;23.130;2023-09-07T06:37:20;157588.53;;;20.03;91.48
11888;BME280;6003;42.756;23.130;2023-09-07T06:39:49;157583.19;;;20.01;88.92
11888;BME280;6003;42.756;23.130;2023-09-07T06:42:16;157585.91;;;20.02;88.99
11888;BME280;6003;42.756;23.130;2023-09-07T06:44:43;157595.19;;;20.06;88.83
11888;BME280;6003;42.756;23.130;2023-09-07T06:47:10;157587.22;;;20.03;88.50
11888;BME280;6003;42.756;23.130;2023-09-07T06:49:39;157540.59;;;19.85;89.61
11888;BME280;6003;42.756;23.130;2023-09-07T06:52:05;157545.94;;;19.87;89.60
11888;BME280;6003;42.756;23.130;2023-09-07T06:54:32;157535.31;;;19.83;89.32
11888;BME280;6003;42.756;23.130;2023-09-07T06:56:59;157504.69;;;19.71;88.34
11888;BME280;6003;42.756;23.130;2023-09-07T06:59:26;157561.91;;;19.93;89.39
11888;BME280;6003;42.756;23.130;2023-09-07T07:01:52;157613.81;;;20.13;86.81
11888;BME280;6003;42.756;23.130;2023-09-07T07:04:19;157707.03;;;20.49;86.42
11888;BME280;6003;42.756;23.130;2023-09-07T07:06:47;157733.69;;;20.59;84.50
11888;BME280;6003;42.756;23.130;2023-09-07T07:09:14;157853.53;;;21.05;83.91
11888;BME280;6003;42.756;23.130;2023-09-07T07:11:42;157872.22;;;21.12;80.86
11888;BME280;6003;42.756;23.130;2023-09-07T07:14:09;157968.19;;;21.49;80.54
11888;BME280;6003;42.756;23.130;2023-09-07T07:16:36;157972.19;;;21.51;81.32
11888;BME280;6003;42.756;23.130;2023-09-07T07:19:03;158048.13;;;21.80;79.27
11888;BME280;6003;42.756;23.130;2023-09-07T07:21:30;157973.50;;;21.51;79.07
11888;BME280;6003;42.756;23.130;2023-09-07T07:23:58;157910.84;;;21.27;79.46
11888;BME280;6003;42.756;23.130;2023-09-07T07:26:25;157944.19;;;21.40;79.37
11888;BME280;6003;42.756;23.130;2023-09-07T07:28:52;157917.50;;;21.30;80.02
11888;BME280;6003;42.756;23.130;2023-09-07T07:31:19;157880.22;;;21.15;78.93
11888;BME280;6003;42.756;23.130;2023-09-07T07:33:46;157836.25;;;20.99;79.53
11888;BME280;6003;42.756;23.130;2023-09-07T07:36:13;157852.22;;;21.05;79.96
11888;BME280;6003;42.756;23.130;2023-09-07T07:38:40;157786.94;;;20.80;78.39
11888;BME280;6003;42.756;23.130;2023-09-07T07:41:08;157792.28;;;20.82;79.80
11888;BME280;6003;42.756;23.130;2023-09-07T07:43:35;157749.66;;;20.65;79.56
11888;BME280;6003;42.756;23.130;2023-09-07T07:46:02;157751.03;;;20.66;80.04
11888;BME280;6003;42.756;23.130;2023-09-07T07:48:29;157727.03;;;20.57;81.30
11888;BME280;6003;42.756;23.130;2023-09-07T07:51:03;157725.69;;;20.56;81.57
11888;BME280;6003;42.756;23.130;2023-09-07T07:53:30;157693.72;;;20.44;79.36
11888;BME280;6003;42.756;23.130;2023-09-07T07:55:57;157691.06;;;20.43;78.83
11888;BME280;6003;42.756;23.130;2023-09-07T07:58:26;157693.72;;;20.44;79.81
11888;BME280;6003;42.756;23.130;2023-09-07T08:00:52;157701.69;;;20.47;80.22
11888;BME280;6003;42.756;23.130;2023-09-07T08:03:23;157676.41;;;20.37;80.02
11888;BME280;6003;42.756;23.130;2023-09-07T08:05:50;157704.34;;;20.48;79.50
11888;BME280;6003;42.756;23.130;2023-09-07T08:08:17;157671.06;;;20.35;77.56
11888;BME280;6003;42.756;23.130;2023-09-07T08:10:44;157653.78;;;20.28;78.08
11888;BME280;6003;42.756;23.130;2023-09-07T08:13:11;157648.44;;;20.26;79.15
11888;BME280;6003;42.756;23.130;2023-09-07T08:15:40;157684.41;;;20.40;80.19
11888;BME280;6003;42.756;23.130;2023-09-07T08:18:08;157705.72;;;20.48;80.15
11888;BME280;6003;42.756;23.130;2023-09-07T08:20:35;157731.03;;;20.58;79.33
11888;BME280;6003;42.756;23.130;2023-09-07T08:23:05;157767.00;;;20.72;79.99
11888;BME280;6003;42.756;23.130;2023-09-07T08:25:33;157785.63;;;20.79;77.16
11888;BME280;6003;42.756;23.130;2023-09-07T08:28:00;157765.69;;;20.71;73.26
11888;BME280;6003;42.756;23.130;2023-09-07T08:30:30;157778.97;;;20.77;74.92
11888;BME280;6003;42.756;23.130;2023-09-07T08:32:59;157745.69;;;20.64;75.10
11888;BME280;6003;42.756;23.130;2023-09-07T08:35:27;157735.00;;;20.60;72.14
11888;BME280;6003;42.756;23.130;2023-09-07T08:37:54;157759.00;;;20.69;69.86
11888;BME280;6003;42.756;23.130;2023-09-07T08:40:23;157744.38;;;20.63;69.80
11888;BME280;6003;42.756;23.130;2023-09-07T08:42:51;157752.34;;;20.66;71.73
11888;BME280;6003;42.756;23.130;2023-09-07T08:45:21;157770.97;;;20.73;72.97
11888;BME280;6003;42.756;23.130;2023-09-07T08:47:49;157810.97;;;20.89;72.29
11888;BME280;6003;42.756;23.130;2023-09-07T08:50:18;157832.22;;;20.97;69.78
11888;BME280;6003;42.756;23.130;2023-09-07T08:52:46;157842.91;;;21.01;69.76
11888;BME280;6003;42.756;23.130;2023-09-07T08:55:18;157849.56;;;21.04;70.90
11888;BME280;6003;42.756;23.130;2023-09-07T08:57:46;157826.94;;;20.95;71.55
11888;BME280;6003;42.756;23.130;2023-09-07T09:00:14;157832.22;;;20.97;72.36
11888;BME280;6003;42.756;23.130;2023-09-07T09:02:41;157824.25;;;20.94;72.21
11888;BME280;6003;42.756;23.130;2023-09-07T09:05:09;157856.25;;;21.06;73.32
11888;BME280;6003;42.756;23.130;2023-09-07T09:07:38;157856.25;;;21.06;71.34
11888;BME280;6003;42.756;23.130;2023-09-07T09:10:05;157874.88;;;21.13;70.69
11888;BME280;6003;42.756;23.130;2023-09-07T09:12:33;157880.22;;;21.15;69.41
11888;BME280;6003;42.756;23.130;2023-09-07T09:15:00;157898.84;;;21.23;70.57
11888;BME280;6003;42.756;23.130;2023-09-07T09:17:28;157929.47;;;21.34;70.78
11888;BME280;6003;42.756;23.130;2023-09-07T09:19:55;157961.53;;;21.47;70.21
11888;BME280;6003;42.756;23.130;2023-09-07T09:22:22;158004.13;;;21.63;70.53
11888;BME280;6003;42.756;23.130;2023-09-07T09:24:51;158041.44;;;21.77;71.26
11888;BME280;6003;42.756;23.130;2023-09-07T09:27:18;158072.09;;;21.89;70.59
11888;BME280;6003;42.756;23.130;2023-09-07T09:29:45;158105.44;;;22.02;70.12
11888;BME280;6003;42.756;23.130;2023-09-07T09:32:13;158124.09;;;22.09;69.45
11888;BME280;6003;42.756;23.130;2023-09-07T09:34:43;158109.41;;;22.03;67.57
11888;BME280;6003;42.756;23.130;2023-09-07T09:37:13;158101.44;;;22.00;68.67
11888;BME280;6003;42.756;23.130;2023-09-07T09:39:42;158074.81;;;21.90;67.28
11888;BME280;6003;42.756;23.130;2023-09-07T09:42:12;158064.09;;;21.86;66.46
11888;BME280;6003;42.756;23.130;2023-09-07T09:44:40;158098.78;;;21.99;66.58
11888;BME280;6003;42.756;23.130;2023-09-07T09:47:08;158125.41;;;22.09;66.57
11888;BME280;6003;42.756;23.130;2023-09-07T09:49:35;158136.09;;;22.14;66.49
11888;BME280;6003;42.756;23.130;2023-09-07T09:52:04;158149.50;;;22.19;65.26
11888;BME280;6003;42.756;23.130;2023-09-07T09:54:33;158138.75;;;22.15;64.20
11888;BME280;6003;42.756;23.130;2023-09-07T09:57:01;158154.78;;;22.21;65.14
11888;BME280;6003;42.756;23.130;2023-09-07T09:59:30;158205.47;;;22.40;65.78
11888;BME280;6003;42.756;23.130;2023-09-07T10:01:57;158213.47;;;22.43;63.49
11888;BME280;6003;42.756;23.130;2023-09-07T10:04:26;158214.78;;;22.44;64.34
11888;BME280;6003;42.756;23.130;2023-09-07T10:06:55;158200.13;;;22.38;62.66
11888;BME280;6003;42.756;23.130;2023-09-07T10:09:22;158238.81;;;22.53;62.14
11888;BME280;6003;42.756;23.130;2023-09-07T10:11:53;158238.81;;;22.53;61.41
11888;BME280;6003;42.756;23.130;2023-09-07T10:14:20;158244.13;;;22.55;62.18
11888;BME280;6003;42.756;23.130;2023-09-07T10:16:50;158249.47;;;22.57;62.08
11888;BME280;6003;42.756;23.130;2023-09-07T10:19:19;158264.13;;;22.63;62.69
11888;BME280;6003;42.756;23.130;2023-09-07T10:21:46;158266.78;;;22.64;63.94
11888;BME280;6003;42.756;23.130;2023-09-07T10:24:24;158218.81;;;22.45;61.57
11888;BME280;6003;42.756;23.130;2023-09-07T10:27:01;158238.81;;;22.53;63.42
11888;BME280;6003;42.756;23.130;2023-09-07T10:29:40;158249.47;;;22.57;62.92
11888;BME280;6003;42.756;23.130;2023-09-07T10:32:10;158250.78;;;22.58;62.25
11888;BME280;6003;42.756;23.130;2023-09-07T10:34:38;158217.47;;;22.45;61.88
11888;BME280;6003;42.756;23.130;2023-09-07T10:37:09;158234.81;;;22.51;61.86
11888;BME280;6003;42.756;23.130;2023-09-07T10:39:39;158240.16;;;22.53;61.33
11888;BME280;6003;42.756;23.130;2023-09-07T10:42:08;158276.16;;;22.67;62.35
11888;BME280;6003;42.756;23.130;2023-09-07T10:44:35;158213.47;;;22.43;62.44
11888;BME280;6003;42.756;23.130;2023-09-07T10:47:03;158252.13;;;22.58;62.60
11888;BME280;6003;42.756;23.130;2023-09-07T10:49:32;158306.81;;;22.79;64.13
11888;BME280;6003;42.756;23.130;2023-09-07T10:51:59;158306.81;;;22.79;62.58
11888;BME280;6003;42.756;23.130;2023-09-07T10:54:26;158293.47;;;22.74;62.36
11888;BME280;6003;42.756;23.130;2023-09-07T10:56:53;158322.81;;;22.85;62.59
11888;BME280;6003;42.756;23.130;2023-09-07T10:59:23;158326.81;;;22.87;60.84
11888;BME280;6003;42.756;23.130;2023-09-07T11:01:54;158288.13;;;22.72;61.78
11888;BME280;6003;42.756;23.130;2023-09-07T11:04:20;158289.47;;;22.72;61.99
11888;BME280;6003;42.756;23.130;2023-09-07T11:06:49;158341.47;;;22.92;62.90
11888;BME280;6003;42.756;23.130;2023-09-07T11:09:15;158353.53;;;22.97;64.38
11888;BME280;6003;42.756;23.130;2023-09-07T11:11:46;158349.53;;;22.95;63.39
11888;BME280;6003;42.756;23.130;2023-09-07T11:14:13;158306.81;;;22.79;63.41
11888;BME280;6003;42.756;23.130;2023-09-07T11:16:40;158313.50;;;22.82;63.58
11888;BME280;6003;42.756;23.130;2023-09-07T11:19:08;158338.81;;;22.91;64.67
11888;BME280;6003;42.756;23.130;2023-09-07T11:21:35;158386.88;;;23.10;64.34
11888;BME280;6003;42.756;23.130;2023-09-07T11:24:04;158428.25;;;23.26;64.41
11888;BME280;6003;42.756;23.130;2023-09-07T11:26:41;158414.91;;;23.20;63.95
11888;BME280;6003;42.756;23.130;2023-09-07T11:29:08;158434.91;;;23.28;64.48
11888;BME280;6003;42.756;23.130;2023-09-07T11:31:35;158434.91;;;23.28;64.35
11888;BME280;6003;42.756;23.130;2023-09-07T11:34:02;158429.56;;;23.26;64.03
11888;BME280;6003;42.756;23.130;2023-09-07T11:36:29;158385.53;;;23.09;63.30
11888;BME280;6003;42.756;23.130;2023-09-07T11:38:56;158376.22;;;23.06;63.99
11888;BME280;6003;42.756;23.130;2023-09-07T11:41:24;158373.56;;;23.05;64.55
11888;BME280;6003;42.756;23.130;2023-09-07T11:43:51;158381.56;;;23.08;64.36
11888;BME280;6003;42.756;23.130;2023-09-07T11:46:18;158353.53;;;22.97;63.78
11888;BME280;6003;42.756;23.130;2023-09-07T11:48:44;158360.22;;;23.00;64.02
11888;BME280;6003;42.756;23.130;2023-09-07T11:51:14;158312.13;;;22.81;63.86
11888;BME280;6003;42.756;23.130;2023-09-07T11:53:41;158324.16;;;22.86;65.28
11888;BME280;6003;42.756;23.130;2023-09-07T11:56:08;158325.47;;;22.86;65.42
11888;BME280;6003;42.756;23.130;2023-09-07T11:58:36;158350.91;;;22.96;65.19
11888;BME280;6003;42.756;23.130;2023-09-07T12:01:03;158313.50;;;22.82;64.91
11888;BME280;6003;42.756;23.130;2023-09-07T12:03:50;158302.81;;;22.78;64.46
11888;BME280;6003;42.756;23.130;2023-09-07T12:06:17;158274.78;;;22.67;64.58
11888;BME280;6003;42.756;23.130;2023-09-07T12:08:58;158281.47;;;22.69;65.09
11888;BME280;6003;42.756;23.130;2023-09-07T12:11:25;158290.81;;;22.73;65.01
11888;BME280;6003;42.756;23.130;2023-09-07T12:13:54;158274.78;;;22.67;64.44
11888;BME280;6003;42.756;23.130;2023-09-07T12:16:20;158257.47;;;22.60;64.71
11888;BME280;6003;42.756;23.130;2023-09-07T12:18:47;158213.47;;;22.43;64.73
11888;BME280;6003;42.756;23.130;2023-09-07T12:21:14;158258.78;;;22.61;64.71
11888;BME280;6003;42.756;23.130;2023-09-07T12:23:41;158274.78;;;22.67;65.94
11888;BME280;6003;42.756;23.130;2023-09-07T12:26:08;158266.78;;;22.64;64.27
11888;BME280;6003;42.756;23.130;2023-09-07T12:28:35;158272.13;;;22.66;64.27
11888;BME280;6003;42.756;23.130;2023-09-07T12:31:03;158289.47;;;22.72;64.54
11888;BME280;6003;42.756;23.130;2023-09-07T12:33:31;158290.81;;;22.73;64.63
11888;BME280;6003;42.756;23.130;2023-09-07T12:35:58;158292.16;;;22.73;64.80
11888;BME280;6003;42.756;23.130;2023-09-07T12:38:25;158320.13;;;22.84;65.36
11888;BME280;6003;42.756;23.130;2023-09-07T12:40:54;158301.47;;;22.77;63.17
11888;BME280;6003;42.756;23.130;2023-09-07T12:43:21;158293.47;;;22.74;63.95
11888;BME280;6003;42.756;23.130;2023-09-07T12:45:50;158309.47;;;22.80;63.78
11888;BME280;6003;42.756;23.130;2023-09-07T12:48:19;158282.78;;;22.70;63.74